createdAt,value
2018-06-18T00:00:13.153Z,101157.59
2018-06-18T00:02:41.706Z,101158.45
2018-06-18T00:05:10.208Z,101152.27
2018-06-18T00:07:38.712Z,101154.83
2018-06-18T00:10:08.892Z,101153.59
2018-06-18T00:12:37.620Z,101147.78
2018-06-18T00:15:06.118Z,101143.78
2018-06-18T00:17:34.693Z,101145.12
2018-06-18T00:20:03.255Z,101146.45
2018-06-18T00:22:31.821Z,101163.78
2018-06-18T00:25:01.134Z,101170.92
2018-06-18T00:27:29.667Z,101166.92
2018-06-18T00:29:58.216Z,101169.11
2018-06-18T00:32:27.650Z,101169.11
2018-06-18T00:34:56.158Z,101165.59
2018-06-18T00:37:25.445Z,101167.41
2018-06-18T00:39:53.931Z,101170.92
2018-06-18T00:42:22.680Z,101168.26
2018-06-18T00:44:51.307Z,101165.69
2018-06-18T00:47:19.813Z,101159.41
2018-06-18T00:49:48.477Z,101163.41
2018-06-18T00:52:16.987Z,101172.73
2018-06-18T00:54:45.464Z,101175.78
2018-06-18T00:57:14.029Z,101169.21
2018-06-18T00:59:42.463Z,101174.55
2018-06-18T01:02:11.009Z,101176.36
2018-06-18T01:04:39.566Z,101168.36
2018-06-18T01:07:08.292Z,101166.06
2018-06-18T01:09:36.774Z,101155.03
2018-06-18T01:12:05.273Z,101173.31
2018-06-18T01:14:34.245Z,101164.84
2018-06-18T01:17:03.365Z,101155.03
2018-06-18T01:19:31.872Z,101149.32
2018-06-18T01:22:00.462Z,101146.66
2018-06-18T01:24:40.460Z,101149.80
2018-06-18T01:27:09.399Z,101151.13
2018-06-18T01:29:37.893Z,101144.47
2018-06-18T01:32:06.441Z,101140.95
2018-06-18T01:34:34.883Z,101135.13
2018-06-18T01:37:04.754Z,101122.77
2018-06-18T01:39:33.266Z,101120.95
2018-06-18T01:42:01.926Z,101124.95
2018-06-18T01:44:30.365Z,101122.66
2018-06-18T01:46:58.882Z,101122.66
2018-06-18T01:49:27.350Z,101128.54
2018-06-18T01:51:56.039Z,101131.98
2018-06-18T01:54:24.518Z,101129.02
2018-06-18T01:56:53.005Z,101128.09
2018-06-18T01:59:21.530Z,101124.95
2018-06-18T02:01:50.089Z,101126.36
2018-06-18T02:04:18.680Z,101124.95
2018-06-18T02:06:47.257Z,101117.44
2018-06-18T02:09:15.708Z,101116.09
2018-06-18T02:11:44.837Z,101109.88
2018-06-18T02:14:13.355Z,101113.88
2018-06-18T02:16:41.904Z,101122.28
2018-06-18T02:19:10.412Z,101138.76
2018-06-18T02:21:39.618Z,101138.28
2018-06-18T02:24:09.072Z,101132.95
2018-06-18T02:26:37.967Z,101122.77
2018-06-18T02:29:11.883Z,101122.77
2018-06-18T02:31:45.801Z,101128.95
2018-06-18T02:34:19.525Z,101134.28
2018-06-18T02:36:53.430Z,101124.95
2018-06-18T02:39:21.909Z,101124.55
2018-06-18T02:41:51.036Z,101120.55
2018-06-18T02:44:19.538Z,101123.20
2018-06-18T02:46:48.012Z,101125.02
2018-06-18T02:49:16.656Z,101123.20
2018-06-18T02:51:45.226Z,101120.55
2018-06-18T02:54:13.708Z,101113.88
2018-06-18T02:56:52.206Z,101121.02
2018-06-18T02:59:20.665Z,101126.45
2018-06-18T03:01:50.184Z,101120.95
2018-06-18T03:04:18.667Z,101129.43
2018-06-18T03:06:47.229Z,101126.36
2018-06-18T03:09:15.801Z,101121.50
2018-06-18T03:11:44.470Z,101125.88
2018-06-18T03:14:13.231Z,101128.09
2018-06-18T03:16:41.662Z,101128.54
2018-06-18T03:19:15.358Z,101124.95
2018-06-18T03:21:49.298Z,101117.02
2018-06-18T03:24:23.305Z,101117.98
2018-06-18T03:26:57.651Z,101127.20
2018-06-18T03:29:28.966Z,101122.36
2018-06-18T03:31:59.358Z,101125.98
2018-06-18T03:34:27.925Z,101121.87
2018-06-18T03:36:57.292Z,101119.69
2018-06-18T03:39:26.068Z,101121.87
2018-06-18T03:41:55.176Z,101127.20
2018-06-18T03:44:38.143Z,101130.35
2018-06-18T03:47:17.488Z,101135.61
2018-06-18T03:49:46.505Z,101127.69
2018-06-18T03:52:15.025Z,101131.79
2018-06-18T03:54:43.693Z,101129.50
2018-06-18T03:57:12.708Z,101129.59
2018-06-18T03:59:41.278Z,101126.83
2018-06-18T04:02:19.862Z,101128.16
2018-06-18T04:05:01.290Z,101129.02
2018-06-18T04:08:04.676Z,101126.45
2018-06-18T04:10:40.892Z,101125.13
2018-06-18T04:13:09.791Z,101122.08
2018-06-18T04:15:38.222Z,101121.13
2018-06-18T04:18:06.770Z,101117.12
2018-06-18T04:20:40.702Z,101118.94
2018-06-18T04:23:09.377Z,101118.08
2018-06-18T04:25:38.084Z,101115.80
2018-06-18T04:28:06.610Z,101125.98
2018-06-18T04:30:35.174Z,101120.75
2018-06-18T04:33:03.878Z,101129.59
2018-06-18T04:35:32.322Z,101128.75
2018-06-18T04:38:00.804Z,101128.75
2018-06-18T04:40:29.275Z,101129.13
2018-06-18T04:43:03.145Z,101131.79
2018-06-18T04:45:37.614Z,101137.02
2018-06-18T04:48:12.061Z,101129.98
2018-06-18T04:50:48.342Z,101122.45
2018-06-18T04:53:17.096Z,101125.23
2018-06-18T04:55:45.653Z,101128.75
2018-06-18T04:58:14.254Z,101128.16
2018-06-18T05:00:53.256Z,101138.76
2018-06-18T05:03:21.765Z,101134.66
2018-06-18T05:05:50.314Z,101138.18
2018-06-18T05:08:49.673Z,101140.74
2018-06-18T05:11:18.177Z,101142.93
2018-06-18T05:13:49.141Z,101143.41
2018-06-18T05:16:17.629Z,101146.45
2018-06-18T05:18:46.154Z,101147.78
2018-06-18T05:21:14.650Z,101155.78
2018-06-18T05:23:43.187Z,101148.64
2018-06-18T05:26:11.766Z,101147.30
2018-06-18T05:28:40.276Z,101148.56
2018-06-18T05:31:08.755Z,101145.49
2018-06-18T05:33:37.505Z,101147.23
2018-06-18T05:36:10.594Z,101152.94
2018-06-18T05:38:39.130Z,101154.28
2018-06-18T05:41:07.553Z,101157.32
2018-06-18T05:43:36.390Z,101157.22
2018-06-18T05:46:04.949Z,101155.03
2018-06-18T05:48:33.396Z,101152.73
2018-06-18T05:51:02.027Z,101152.36
2018-06-18T05:53:31.237Z,101153.48
2018-06-18T05:55:59.838Z,101154.12
2018-06-18T05:58:28.430Z,101143.31
2018-06-18T06:00:56.833Z,101141.87
2018-06-18T06:03:25.316Z,101146.16
2018-06-18T06:05:54.181Z,101148.78
2018-06-18T06:08:23.425Z,101145.26
2018-06-18T06:10:51.953Z,101144.83
2018-06-18T06:13:20.524Z,101146.24
2018-06-18T06:15:49.433Z,101147.20
2018-06-18T06:18:17.927Z,101149.23
2018-06-18T06:20:52.703Z,101147.66
2018-06-18T06:23:21.186Z,101139.47
2018-06-18T06:25:50.137Z,101139.30
2018-06-18T06:28:18.618Z,101133.48
2018-06-18T06:30:54.098Z,101140.91
2018-06-18T06:33:23.982Z,101136.33
2018-06-18T06:38:30.609Z,101142.14
2018-06-18T06:40:59.044Z,101146.99
2018-06-18T06:43:27.667Z,101150.06
2018-06-18T06:45:56.785Z,101154.44
2018-06-18T06:48:25.305Z,101149.59
2018-06-18T06:50:53.766Z,101148.73
2018-06-18T06:53:22.247Z,101165.95
2018-06-18T06:55:50.874Z,101167.77
2018-06-18T06:58:19.299Z,101169.10
2018-06-18T07:00:47.769Z,101170.43
2018-06-18T07:03:18.011Z,101161.58
2018-06-18T07:05:46.896Z,101167.77
2018-06-18T07:08:15.366Z,101158.92
2018-06-18T07:10:43.788Z,101166.44
2018-06-18T07:13:13.261Z,101165.10
2018-06-18T07:15:42.889Z,101164.25
2018-06-18T07:18:11.709Z,101169.58
2018-06-18T07:20:41.133Z,101173.09
2018-06-18T07:23:09.566Z,101170.43
2018-06-18T07:25:38.618Z,101175.77
2018-06-18T07:28:07.678Z,101182.80
2018-06-18T07:30:36.731Z,101181.47
2018-06-18T07:33:06.181Z,101179.28
2018-06-18T07:35:34.905Z,101182.80
2018-06-18T07:38:03.398Z,101178.43
2018-06-18T07:40:32.810Z,101189.94
2018-06-18T07:43:01.826Z,101187.75
2018-06-18T07:45:30.548Z,101186.90
2018-06-18T07:47:59.002Z,101186.42
2018-06-18T07:50:27.481Z,101181.57
2018-06-18T07:52:56.463Z,101180.72
2018-06-18T07:55:25.534Z,101186.90
2018-06-18T07:57:54.013Z,101187.75
2018-06-18T08:00:23.395Z,101186.42
2018-06-18T08:02:51.941Z,101181.57
2018-06-18T08:05:20.694Z,101185.57
2018-06-18T08:07:49.180Z,101184.23
2018-06-18T08:10:18.517Z,101186.05
2018-06-18T08:12:47.043Z,101180.72
2018-06-18T08:15:16.244Z,101182.05
2018-06-18T08:17:44.738Z,101183.76
2018-06-18T08:20:15.598Z,101186.90
2018-06-18T08:22:44.674Z,101177.58
2018-06-18T08:25:13.335Z,101183.38
2018-06-18T08:27:42.878Z,101187.75
2018-06-18T08:30:13.181Z,101187.75
2018-06-18T08:32:42.643Z,101179.76
2018-06-18T08:35:11.121Z,101192.13
2018-06-18T08:37:39.710Z,101185.47
2018-06-18T08:40:08.296Z,101186.33
2018-06-18T08:42:36.762Z,101178.80
2018-06-18T08:45:05.245Z,101183.66
2018-06-18T08:47:33.851Z,101172.14
2018-06-18T08:50:07.556Z,101166.34
2018-06-18T08:52:41.125Z,101159.19
2018-06-18T08:55:14.770Z,101165.86
2018-06-18T08:57:48.671Z,101159.67
2018-06-18T09:00:27.594Z,101152.53
2018-06-18T09:03:01.501Z,101160.90
2018-06-18T09:05:35.201Z,101155.09
2018-06-18T09:08:09.069Z,101162.71
2018-06-18T09:10:37.537Z,101152.42
2018-06-18T09:13:06.103Z,101159.19
2018-06-18T09:15:34.615Z,101160.90
2018-06-18T09:18:03.770Z,101158.23
2018-06-18T09:20:32.348Z,101155.95
2018-06-18T09:23:01.915Z,101151.95
2018-06-18T09:25:30.478Z,101146.24
2018-06-18T09:28:00.562Z,101147.03
2018-06-18T09:30:35.226Z,101143.88
2018-06-18T09:33:04.365Z,101151.41
2018-06-18T09:35:33.336Z,101150.07
2018-06-18T09:38:01.872Z,101155.87
2018-06-18T09:40:30.432Z,101156.63
2018-06-18T09:42:58.904Z,101155.78
2018-06-18T09:45:27.580Z,101149.49
2018-06-18T09:47:56.689Z,101150.34
2018-06-18T09:50:31.041Z,101162.82
2018-06-18T09:53:04.795Z,101159.67
2018-06-18T09:55:38.472Z,101153.39
2018-06-18T09:59:12.167Z,101153.86
2018-06-18T10:01:40.984Z,101152.91
2018-06-18T10:04:09.587Z,101149.32
2018-06-18T10:06:41.445Z,101155.58
2018-06-18T10:09:11.496Z,101158.65
2018-06-18T10:11:39.942Z,101153.31
2018-06-18T10:14:10.420Z,101152.84
2018-06-18T10:16:39.290Z,101148.36
2018-06-18T10:19:07.886Z,101155.41
2018-06-18T10:21:36.325Z,101145.59
2018-06-18T10:24:04.888Z,101144.74
2018-06-18T10:26:33.421Z,101146.92
2018-06-18T10:29:01.977Z,101154.92
2018-06-18T10:31:30.452Z,101157.97
2018-06-18T10:34:04.252Z,101155.78
2018-06-18T10:36:37.949Z,101170.34
2018-06-18T10:39:13.887Z,101158.45
2018-06-18T10:41:47.662Z,101151.41
2018-06-18T10:44:16.176Z,101155.78
2018-06-18T10:46:44.742Z,101158.45
2018-06-18T10:49:13.390Z,101156.26
2018-06-18T10:51:41.861Z,101161.48
2018-06-18T10:54:11.397Z,101159.41
2018-06-18T10:56:40.457Z,101162.83
2018-06-18T10:59:09.429Z,101160.16
2018-06-18T11:01:37.885Z,101159.30
2018-06-18T11:04:10.579Z,101164.94
2018-06-18T11:06:39.067Z,101163.98
2018-06-18T11:09:11.555Z,101164.47
2018-06-18T11:11:40.036Z,101167.98
2018-06-18T11:14:08.780Z,101156.36
2018-06-18T11:16:37.421Z,101165.69
2018-06-18T11:19:11.117Z,101162.55
2018-06-18T11:21:44.978Z,101165.22
2018-06-18T11:24:18.703Z,101164.84
2018-06-18T11:27:02.021Z,101156.36
2018-06-18T11:29:30.504Z,101155.88
2018-06-18T11:31:59.397Z,101157.22
2018-06-18T11:34:27.833Z,101154.55
2018-06-18T11:36:56.333Z,101151.41
2018-06-18T11:39:25.015Z,101154.45
2018-06-18T11:41:53.743Z,101148.16
2018-06-18T11:44:22.258Z,101148.16
2018-06-18T11:46:50.690Z,101150.38
2018-06-18T11:49:19.439Z,101150.28
2018-06-18T11:51:47.890Z,101149.32
2018-06-18T11:54:16.481Z,101155.98
2018-06-18T11:56:44.965Z,101156.47
2018-06-18T11:59:18.836Z,101154.66
2018-06-18T12:01:52.599Z,101163.61
2018-06-18T12:04:27.464Z,101166.66
2018-06-18T12:07:59.614Z,101168.09
2018-06-18T12:10:28.174Z,101164.09
2018-06-18T12:12:56.611Z,101161.42
2018-06-18T12:15:25.144Z,101168.94
2018-06-18T12:17:54.194Z,101157.42
2018-06-18T12:20:22.784Z,101159.61
2018-06-18T12:22:51.426Z,101155.13
2018-06-18T12:25:20.092Z,101154.17
2018-06-18T12:27:48.683Z,101165.22
2018-06-18T12:30:20.966Z,101161.70
2018-06-18T12:32:49.446Z,101149.22
2018-06-18T12:35:17.925Z,101155.41
2018-06-18T12:37:47.144Z,101158.07
2018-06-18T12:40:16.176Z,101160.73
2018-06-18T12:42:44.786Z,101151.78
2018-06-18T12:45:20.505Z,101151.33
2018-06-18T12:47:54.530Z,101147.71
2018-06-18T12:50:28.345Z,101153.52
2018-06-18T12:53:02.122Z,101150.00
2018-06-18T12:55:36.717Z,101144.56
2018-06-18T12:58:05.437Z,101142.86
2018-06-18T13:00:48.016Z,101152.56
2018-06-18T13:03:17.384Z,101148.56
2018-06-18T13:05:45.815Z,101150.86
2018-06-18T13:08:14.288Z,101152.56
2018-06-18T13:10:42.818Z,101139.78
2018-06-18T13:13:11.270Z,101149.05
2018-06-18T13:15:40.246Z,101146.38
2018-06-18T13:18:08.988Z,101148.19
2018-06-18T13:20:38.188Z,101145.52
2018-06-18T13:23:07.276Z,101149.05
2018-06-18T13:25:36.816Z,101146.86
2018-06-18T13:28:10.477Z,101157.52
2018-06-18T13:30:39.008Z,101157.05
2018-06-18T13:33:07.478Z,101155.23
2018-06-18T13:35:35.979Z,101157.42
2018-06-18T13:38:09.857Z,101150.75
2018-06-18T13:40:43.717Z,101155.23
2018-06-18T13:43:17.409Z,101151.61
2018-06-18T13:45:47.978Z,101144.94
2018-06-18T13:48:21.563Z,101150.66
2018-06-18T13:50:50.924Z,101156.46
2018-06-18T13:53:19.353Z,101153.31
2018-06-18T13:55:48.580Z,101151.98
2018-06-18T13:58:17.112Z,101149.31
2018-06-18T14:00:45.729Z,101159.88
2018-06-18T14:03:14.198Z,101156.36
2018-06-18T14:05:43.216Z,101140.36
2018-06-18T14:08:12.221Z,101148.84
2018-06-18T14:10:41.320Z,101149.21
2018-06-18T14:13:09.889Z,101148.84
2018-06-18T14:15:38.481Z,101157.22
2018-06-18T14:18:06.996Z,101155.03
2018-06-18T14:20:35.987Z,101156.94
2018-06-18T14:23:04.888Z,101163.13
2018-06-18T14:25:33.426Z,101172.36
2018-06-18T14:28:02.767Z,101163.98
2018-06-18T14:30:36.793Z,101160.94
2018-06-18T14:33:10.501Z,101174.17
2018-06-18T14:35:44.262Z,101169.31
2018-06-18T14:38:19.112Z,101161.70
2018-06-18T14:40:47.755Z,101168.36
2018-06-18T14:43:16.200Z,101160.36
2018-06-18T14:45:45.390Z,101167.03
2018-06-18T14:48:13.913Z,101171.03
2018-06-18T14:50:42.465Z,101165.22
2018-06-18T14:53:10.945Z,101168.36
2018-06-18T14:55:39.569Z,101169.69
2018-06-18T14:58:08.033Z,101161.70
2018-06-18T15:00:36.864Z,101165.69
2018-06-18T15:03:05.435Z,101161.05
2018-06-18T15:05:38.449Z,101158.27
2018-06-18T15:08:07.255Z,101152.94
2018-06-18T15:10:42.764Z,101161.80
2018-06-18T15:13:13.445Z,101155.41
2018-06-18T15:15:47.441Z,101147.71
2018-06-18T15:18:15.974Z,101156.09
2018-06-18T15:20:45.124Z,101150.27
2018-06-18T15:23:13.559Z,101145.22
2018-06-18T15:25:45.226Z,101148.36
2018-06-18T15:28:13.844Z,101145.14
2018-06-18T15:30:43.185Z,101147.98
2018-06-18T15:33:12.544Z,101148.73
2018-06-18T15:35:41.699Z,101151.50
2018-06-18T15:38:10.296Z,101153.22
2018-06-18T15:40:38.906Z,101147.61
2018-06-18T15:43:07.415Z,101153.31
2018-06-18T15:45:36.017Z,101148.73
2018-06-18T15:48:06.361Z,101150.66
2018-06-18T15:50:35.183Z,101147.23
2018-06-18T15:53:04.081Z,101154.27
2018-06-18T15:55:32.917Z,101145.69
2018-06-18T15:58:02.765Z,101145.03
2018-06-18T16:00:41.032Z,101143.98
2018-06-18T16:03:10.050Z,101145.05
2018-06-18T16:05:38.860Z,101143.88
2018-06-18T16:08:08.765Z,101141.52
2018-06-18T16:10:41.077Z,101139.40
2018-06-18T16:13:10.226Z,101129.14
2018-06-18T16:15:39.416Z,101129.90
2018-06-18T16:18:08.516Z,101130.00
2018-06-18T16:20:38.734Z,101133.52
2018-06-18T16:23:08.599Z,101130.75
2018-06-18T16:25:37.208Z,101136.56
2018-06-18T16:28:06.320Z,101138.06
2018-06-18T16:30:39.725Z,101129.69
2018-06-18T16:33:09.799Z,101122.75
2018-06-18T16:35:39.535Z,101127.97
2018-06-18T16:38:08.453Z,101126.73
2018-06-18T16:40:37.998Z,101123.02
2018-06-18T16:43:10.074Z,101119.23
2018-06-18T16:45:38.782Z,101120.66
2018-06-18T16:48:08.267Z,101120.19
2018-06-18T16:50:37.921Z,101123.12
2018-06-18T16:53:08.475Z,101114.47
2018-06-18T16:55:38.342Z,101123.80
2018-06-18T16:58:08.254Z,101117.12
2018-06-18T17:00:38.421Z,101115.22
2018-06-18T17:03:09.943Z,101112.44
2018-06-18T17:05:40.155Z,101109.41
2018-06-18T17:08:09.069Z,101107.49
2018-06-18T17:10:37.873Z,101106.75
2018-06-18T17:13:06.947Z,101107.41
2018-06-18T17:15:36.357Z,101107.50
2018-06-18T17:18:05.113Z,101109.80
2018-06-18T17:20:33.609Z,101114.86
2018-06-18T17:23:03.938Z,101118.86
2018-06-18T17:25:34.430Z,101111.78
2018-06-18T17:28:03.330Z,101112.74
2018-06-18T17:30:32.577Z,101111.98
2018-06-18T17:33:01.837Z,101116.94
2018-06-18T17:35:30.458Z,101116.38
2018-06-18T17:37:59.711Z,101123.89
2018-06-18T17:40:28.217Z,101125.39
2018-06-18T17:42:57.059Z,101115.02
2018-06-18T17:45:26.886Z,101111.59
2018-06-18T17:47:55.557Z,101113.12
2018-06-18T17:50:24.062Z,101106.75
2018-06-18T17:52:52.985Z,101105.89
2018-06-18T17:55:21.730Z,101108.56
2018-06-18T17:57:50.185Z,101110.28
2018-06-18T18:00:19.157Z,101109.43
2018-06-18T18:02:47.682Z,101102.77
2018-06-18T18:05:16.162Z,101106.56
2018-06-18T18:07:44.762Z,101099.69
2018-06-18T18:10:13.281Z,101103.42
2018-06-18T18:12:42.058Z,101104.10
2018-06-18T18:15:10.679Z,101109.23
2018-06-18T18:17:40.478Z,101102.45
2018-06-18T18:20:08.922Z,101109.70
2018-06-18T18:22:37.490Z,101114.45
2018-06-18T18:25:06.233Z,101120.58
2018-06-18T18:27:35.916Z,101115.14
2018-06-18T18:30:04.546Z,101109.50
2018-06-18T18:32:33.240Z,101113.81
2018-06-18T18:35:03.101Z,101114.56
2018-06-18T18:37:32.290Z,101118.66
2018-06-18T18:40:02.017Z,101113.50
2018-06-18T18:42:31.999Z,101113.70
2018-06-18T18:45:00.733Z,101115.42
2018-06-18T18:47:32.309Z,101119.14
2018-06-18T18:50:02.567Z,101114.19
2018-06-18T18:52:31.504Z,101116.34
2018-06-18T18:56:36.835Z,101115.21
2018-06-18T18:59:26.931Z,101110.94
2018-06-18T19:01:55.496Z,101114.25
2018-06-18T19:04:28.899Z,101108.92
2018-06-18T19:06:58.298Z,101097.58
2018-06-18T19:09:30.242Z,101106.22
2018-06-18T19:11:58.943Z,101110.22
2018-06-18T19:14:27.543Z,101104.52
2018-06-18T19:16:56.039Z,101111.55
2018-06-18T19:19:27.153Z,101106.95
2018-06-18T19:21:55.605Z,101101.25
2018-06-18T19:24:25.831Z,101102.75
2018-06-18T19:26:54.855Z,101108.28
2018-06-18T19:29:23.701Z,101100.39
2018-06-18T19:31:52.172Z,101096.08
2018-06-18T19:34:24.763Z,101098.37
2018-06-18T19:36:54.912Z,101103.69
2018-06-18T19:39:27.417Z,101105.03
2018-06-18T19:41:55.932Z,101106.45
2018-06-18T19:44:24.975Z,101111.48
2018-06-18T19:47:08.401Z,101109.89
2018-06-18T19:49:37.386Z,101105.05
2018-06-18T19:52:05.978Z,101109.62
2018-06-18T19:54:38.419Z,101114.95
2018-06-18T19:57:08.161Z,101113.25
2018-06-18T19:59:37.712Z,101106.76
2018-06-18T20:02:07.119Z,101111.70
2018-06-18T20:04:36.707Z,101118.09
2018-06-18T20:07:07.011Z,101120.38
2018-06-18T20:09:37.753Z,101119.97
2018-06-18T20:12:07.333Z,101122.83
2018-06-18T20:14:36.981Z,101117.60
2018-06-18T20:17:06.341Z,101115.89
2018-06-18T20:19:34.805Z,101117.77
2018-06-18T20:22:03.283Z,101121.77
2018-06-18T20:24:32.162Z,101124.44
2018-06-18T20:27:01.118Z,101131.05
2018-06-18T20:29:30.363Z,101135.15
2018-06-18T20:31:59.394Z,101139.77
2018-06-18T20:34:29.431Z,101146.61
2018-06-18T20:36:58.821Z,101149.95
2018-06-18T20:39:28.081Z,101157.27
2018-06-18T20:41:56.975Z,101163.39
2018-06-18T20:44:30.833Z,101156.16
2018-06-18T20:47:00.473Z,101160.05
2018-06-18T20:49:29.249Z,101159.95
2018-06-18T20:51:58.218Z,101158.06
2018-06-18T20:54:27.411Z,101167.19
2018-06-18T20:56:58.287Z,101163.67
2018-06-18T20:59:27.251Z,101168.05
2018-06-18T21:01:56.633Z,101168.91
2018-06-18T21:04:26.025Z,101173.69
2018-06-18T21:06:54.930Z,101177.69
2018-06-18T21:09:25.046Z,101182.92
2018-06-18T21:11:55.475Z,101184.62
2018-06-18T21:14:25.328Z,101188.15
2018-06-18T21:16:55.614Z,101205.00
2018-06-18T21:19:27.331Z,101198.33
2018-06-18T21:21:56.984Z,101201.86
2018-06-18T21:24:27.152Z,101202.27
2018-06-18T21:26:57.788Z,101208.45
2018-06-18T21:29:27.402Z,101209.30
2018-06-18T21:31:57.054Z,101213.78
2018-06-18T21:34:27.158Z,101216.34
2018-06-18T21:36:56.947Z,101217.69
2018-06-18T21:39:26.516Z,101211.50
2018-06-18T21:41:55.669Z,101211.02
2018-06-18T21:44:31.117Z,101215.02
2018-06-18T21:47:00.285Z,101218.16
2018-06-18T21:49:28.813Z,101219.87
2018-06-18T21:51:57.771Z,101224.25
2018-06-18T21:54:26.786Z,101224.73
2018-06-18T21:56:55.473Z,101222.06
2018-06-18T21:59:25.285Z,101224.14
2018-06-18T22:01:53.808Z,101215.77
2018-06-18T22:04:22.296Z,101224.14
2018-06-18T22:06:50.866Z,101220.15
2018-06-18T22:09:21.222Z,101219.60
2018-06-18T22:11:53.335Z,101225.48
2018-06-18T22:14:22.198Z,101229.89
2018-06-18T22:16:50.874Z,101231.22
2018-06-18T22:19:19.362Z,101224.94
2018-06-18T22:21:48.276Z,101222.75
2018-06-18T22:24:16.822Z,101228.94
2018-06-18T22:26:45.924Z,101232.08
2018-06-18T22:29:15.863Z,101229.41
2018-06-18T22:31:44.572Z,101234.27
2018-06-18T22:34:13.070Z,101223.60
2018-06-18T22:36:41.659Z,101228.45
2018-06-18T22:39:12.671Z,101230.64
2018-06-18T22:41:41.167Z,101232.94
2018-06-18T22:44:10.613Z,101227.60
2018-06-18T22:46:39.203Z,101234.64
2018-06-18T22:49:07.865Z,101243.98
2018-06-18T22:51:36.518Z,101244.45
2018-06-18T22:54:06.503Z,101246.64
2018-06-18T22:56:35.166Z,101238.27
2018-06-18T22:59:03.635Z,101241.31
2018-06-18T23:01:32.204Z,101241.79
2018-06-18T23:04:00.913Z,101242.64
2018-06-18T23:06:29.557Z,101237.79
2018-06-18T23:08:58.189Z,101238.27
2018-06-18T23:11:26.685Z,101236.55
2018-06-18T23:13:56.300Z,101240.94
2018-06-18T23:16:25.016Z,101241.79
2018-06-18T23:18:53.470Z,101245.31
2018-06-18T23:21:22.378Z,101235.98
2018-06-18T23:23:50.903Z,101237.79
2018-06-18T23:26:19.942Z,101231.50
2018-06-18T23:28:53.223Z,101230.64
2018-06-18T23:31:22.578Z,101235.59
2018-06-18T23:33:51.388Z,101232.94
2018-06-18T23:36:20.562Z,101237.41
2018-06-18T23:38:49.730Z,101231.60
2018-06-18T23:41:18.966Z,101228.94
2018-06-18T23:43:47.417Z,101232.94
2018-06-18T23:46:16.073Z,101226.27
2018-06-18T23:48:44.514Z,101225.31
2018-06-18T23:51:13.164Z,101232.94
2018-06-18T23:53:41.838Z,101231.22
2018-06-18T23:56:10.453Z,101227.13
2018-06-18T23:58:38.925Z,101236.45
